Okayama Airport
RJOB : now visible

Airfield :











YOU CAN JOIN US ON...

 
LOGIN :

Register | Disclaimer

   EN    FR    IT 

 









Legend :    VFR   Marginal VFR   IFR   Intensive IFR   Very Intensive IFR
Visi :
Ceiling :
>= 8 km
>= 3000ft
5 to 8 km
1000 to 3000 ft
1500m to 5 km
500 to 1000 ft
800 to 1500m
200 to 500 ft
< 800m
< 200 ft
Symbols :   Thunderstorms  Fog  Heavy snow  Heavy precipitations  Wind > 20 kt







- Airport Elevation : 806 ft
- IATA code : OKJ


RJOB - Okayama

CURRENT METAR :
  • 221200Z 01006KT CAVOK 19/07 Q1016

EXPIRED METARs :
  • 221100Z 02005KT CAVOK 20/08 Q1015
  • 221000Z 12004KT CAVOK 21/11 Q1014

TAF TAF RJOB
Valid from the 22 at 12:00 until the 23 at 18:00 UTC


221108Z 2212/2318 08005KT CAVOK
TEMPO 2312/2318 4000 -RA BR FEW002 SCT005 BKN008
RJJJ FIR / Asia



MET'MAP, your aeronautical weather chart ! - Copyright ORBIFLY December 2007 - Disclaimer

ORBIFLY MET'MAP TEAM :

Programming & Development : Alexandra Zaïnal
Concept & Development : Baudouin d'Aumeries
Co-Development & Prog : Marc-Olivier Méhu
Technical & hardware support : Manuel Goepfert

Contact : metmap@orbifly.com




SOURCES & CREDITS :

   NOAA       Earth
Advisory